Terminal Aerodrome Forecast
Issued by NWS

Home | Current Version | Previous Version | Text Only | Print | Product List | Glossary On
Versions: 1 2 3 4 5 6 7 8 9 10 11 12 13
000
FTUS41 KLWX 201700
TAFMTN
TAF
KMTN 201732Z 2018/2118 09010KT P6SM FEW250
     FM202300 08006KT P6SM FEW250
     FM210400 00000KT P6SM FEW250=

USA.gov is the U.S. government's official web portal to all federal, state and local government web resources and services.